Time;durP1;ratioP1;P1;durP2;ratioP2;P2;SDS_P1;SDS_P2;PMS_P1;PMS_P2;Temp;Humidity;BMP_temperature;BMP_pressure;BME280_temperature;BME280_humidity;BME280_pressure;Samples;Min_cycle;Max_cycle;Signal;HPM_P1;HPM_P2
2020/12/16 00:01:56;;;;;;;20.48;13.70;;;;;;;5.84;88.40;96448.00;4899689;29;20067;-74
2020/12/16 00:04:22;;;;;;;20.48;13.05;;;;;;;5.84;88.34;96458.41;4878912;29;20037;-75
2020/12/16 00:06:49;;;;;;;19.33;12.88;;;;;;;5.83;88.37;96454.97;4882192;29;20044;-74
2020/12/16 00:09:15;;;;;;;16.88;12.45;;;;;;;5.82;88.08;96456.00;4898828;29;20040;-75
2020/12/16 00:11:41;;;;;;;20.73;13.95;;;;;;;5.82;88.38;96456.00;4882533;29;20060;-74
2020/12/16 00:14:07;;;;;;;32.15;21.20;;;;;;;5.78;89.54;96454.75;4894947;29;20470;-74
2020/12/16 00:16:33;;;;;;;22.73;16.30;;;;;;;5.74;89.86;96458.72;4898089;29;20056;-75
2020/12/16 00:19:00;;;;;;;23.45;14.65;;;;;;;5.73;89.59;96451.09;4897250;29;20048;-74
2020/12/16 00:21:26;;;;;;;20.05;13.80;;;;;;;5.73;89.10;96453.69;4883085;29;20096;-75
2020/12/16 00:23:53;;;;;;;19.50;13.80;;;;;;;5.72;88.76;96446.88;4897011;29;20032;-75
2020/12/16 00:26:19;;;;;;;18.30;12.90;;;;;;;5.72;88.56;96446.88;4897109;29;20421;-75
2020/12/16 00:28:45;;;;;;;15.38;11.32;;;;;;;5.70;88.44;96447.06;4896963;29;20052;-74
2020/12/16 00:31:13;;;;;;;18.02;12.27;;;;;;;5.68;88.36;96451.66;4882552;29;20055;-74
2020/12/16 00:33:39;;;;;;;15.38;11.93;;;;;;;5.68;88.39;96452.44;4898826;29;20425;-74
2020/12/16 00:36:06;;;;;;;20.33;12.93;;;;;;;5.67;88.54;96457.88;4898898;29;20043;-74
2020/12/16 00:38:32;;;;;;;17.80;12.68;;;;;;;5.65;88.34;96459.84;4897316;29;20059;-74
2020/12/16 00:40:58;;;;;;;17.85;12.07;;;;;;;5.64;88.29;96464.22;4898674;29;20047;-74
2020/12/16 00:43:24;;;;;;;21.25;13.50;;;;;;;5.61;88.19;96469.81;4865492;29;20060;-74
2020/12/16 00:45:50;;;;;;;17.30;12.93;;;;;;;5.56;87.88;96461.75;4899745;29;20473;-74
2020/12/16 00:48:16;;;;;;;17.45;12.75;;;;;;;5.52;87.63;96463.09;4897794;29;20409;-74
2020/12/16 00:50:43;;;;;;;16.52;11.38;;;;;;;5.49;87.68;96463.47;4896152;29;20047;-75
2020/12/16 00:53:09;;;;;;;15.93;11.60;;;;;;;5.47;87.68;96479.25;4898061;29;20051;-74
2020/12/16 00:55:35;;;;;;;17.52;12.68;;;;;;;5.44;87.88;96477.03;4899304;29;20047;-74
2020/12/16 00:58:01;;;;;;;18.70;13.00;;;;;;;5.42;87.90;96479.03;4898561;29;20053;-73
2020/12/16 01:00:27;;;;;;;19.60;13.05;;;;;;;5.41;88.06;96481.81;4897634;29;20052;-75
2020/12/16 01:02:53;;;;;;;19.33;13.07;;;;;;;5.40;88.07;96486.22;4896385;29;20409;-75
2020/12/16 01:05:20;;;;;;;17.48;12.30;;;;;;;5.41;88.11;96494.81;4897856;29;20397;-74
2020/12/16 01:07:47;;;;;;;17.88;12.75;;;;;;;5.40;88.09;96488.81;4899150;29;20041;-74
2020/12/16 01:10:16;;;;;;;19.88;12.10;;;;;;;5.39;88.04;96494.97;4898157;29;20389;-74
2020/12/16 01:12:43;;;;;;;17.08;12.30;;;;;;;5.38;88.18;96500.38;4897643;29;20052;-76
2020/12/16 01:15:14;;;;;;;17.55;12.23;;;;;;;5.37;88.12;96493.56;4898187;29;20060;-74
2020/12/16 01:17:41;;;;;;;16.02;12.43;;;;;;;5.37;88.05;96491.75;4898374;29;20060;-75
2020/12/16 01:20:08;;;;;;;17.13;12.25;;;;;;;5.35;88.00;96492.94;4891493;29;20462;-74
2020/12/16 01:22:46;;;;;;;20.98;14.35;;;;;;;5.35;88.13;96493.72;4895852;29;20054;-74
2020/12/16 01:25:14;;;;;;;22.40;14.18;;;;;;;5.34;88.14;96502.53;4898533;29;20401;-76
2020/12/16 01:27:40;;;;;;;18.65;13.43;;;;;;;5.34;88.36;96504.34;4896973;29;20044;-75
2020/12/16 01:30:09;;;;;;;18.88;13.07;;;;;;;5.33;88.35;96500.91;4883351;29;20064;-75
2020/12/16 01:32:36;;;;;;;23.88;14.75;;;;;;;5.30;88.36;96496.09;4899144;29;20036;-74
2020/12/16 01:35:07;;;;;;;42.70;15.23;;;;;;;5.28;88.19;96496.25;4896473;29;20036;-76
2020/12/16 01:37:37;;;;;;;25.05;14.48;;;;;;;5.24;88.38;96497.63;4894649;29;20053;-75
2020/12/16 01:40:05;;;;;;;21.80;15.25;;;;;;;5.21;87.89;96492.00;4896966;29;20508;-75
2020/12/16 01:42:32;;;;;;;20.13;14.07;;;;;;;5.17;87.88;96501.16;4896807;29;20049;-74
2020/12/16 01:44:58;;;;;;;29.17;15.90;;;;;;;5.13;87.87;96497.31;4898057;29;20047;-74
2020/12/16 01:47:24;;;;;;;22.65;13.93;;;;;;;5.11;88.06;96499.28;4897005;29;20049;-75
2020/12/16 01:49:52;;;;;;;19.63;14.00;;;;;;;5.06;87.89;96498.03;4896238;29;20059;-75
2020/12/16 01:52:20;;;;;;;22.63;13.68;;;;;;;5.03;88.05;96492.38;4897612;29;20049;-74
2020/12/16 01:54:47;;;;;;;20.42;14.15;;;;;;;5.00;88.15;96498.75;4896727;29;20052;-75
2020/12/16 01:57:18;;;;;;;21.50;13.75;;;;;;;4.94;88.16;96499.47;4894917;29;20040;-75
2020/12/16 01:59:46;;;;;;;39.08;12.98;;;;;;;4.92;87.83;96509.25;4880068;29;20481;-74
2020/12/16 02:02:14;;;;;;;93.80;16.67;;;;;;;4.74;87.62;96509.59;4897884;29;20072;-75
2020/12/16 02:04:45;;;;;;;16.77;12.77;;;;;;;4.65;87.86;96511.47;4896751;29;20071;-76
2020/12/16 02:07:13;;;;;;;18.42;12.18;;;;;;;4.62;88.20;96513.63;4889678;29;20405;-74
2020/12/16 02:09:43;;;;;;;86.60;17.75;;;;;;;4.60;87.79;96502.59;4882868;29;20040;-74
2020/12/16 02:12:11;;;;;;;18.58;12.57;;;;;;;4.55;88.07;96507.53;4897068;29;20040;-74
2020/12/16 02:14:38;;;;;;;18.02;11.80;;;;;;;4.53;88.06;96509.50;4880072;29;20041;-74
2020/12/16 02:17:06;;;;;;;19.67;12.60;;;;;;;4.54;88.16;96505.94;4896898;29;20040;-75
2020/12/16 02:19:43;;;;;;;15.27;11.48;;;;;;;4.54;88.44;96500.75;4890896;29;20041;-74
2020/12/16 02:22:13;;;;;;;15.32;10.50;;;;;;;4.56;88.53;96501.38;4896104;29;20040;-74
2020/12/16 02:24:41;;;;;;;16.50;11.15;;;;;;;4.58;88.46;96502.78;4896343;29;20075;-74
2020/12/16 02:27:10;;;;;;;16.80;10.88;;;;;;;4.58;88.67;96499.41;4895926;29;20059;-74
2020/12/16 02:29:37;;;;;;;15.15;11.25;;;;;;;4.60;88.42;96502.59;4896435;29;20047;-75
2020/12/16 02:32:04;;;;;;;18.45;12.25;;;;;;;4.59;88.48;96498.41;4897692;29;20041;-74
2020/12/16 02:34:30;;;;;;;18.45;11.77;;;;;;;4.61;88.35;96501.63;4887116;29;20045;-73
2020/12/16 02:36:57;;;;;;;15.88;10.85;;;;;;;4.62;88.35;96513.63;4897857;29;20048;-74
2020/12/16 02:39:23;;;;;;;36.65;12.10;;;;;;;4.62;88.45;96509.25;4902001;29;20119;-74
2020/12/16 02:41:49;;;;;;;21.67;12.23;;;;;;;4.60;88.22;96518.19;4884213;29;20056;-74
2020/12/16 02:44:15;;;;;;;40.90;12.18;;;;;;;4.59;88.36;96519.97;4899251;29;20060;-74
2020/12/16 02:46:41;;;;;;;22.05;12.40;;;;;;;4.55;88.35;96520.50;4899838;29;20060;-74
2020/12/16 02:49:07;;;;;;;21.13;12.65;;;;;;;4.50;88.15;96517.66;4900679;29;20057;-74
2020/12/16 02:51:34;;;;;;;19.10;11.80;;;;;;;4.45;88.20;96512.97;4887214;29;20071;-74
2020/12/16 02:54:00;;;;;;;22.20;12.68;;;;;;;4.42;88.41;96508.16;4901601;29;20056;-74
2020/12/16 02:56:26;;;;;;;22.13;12.23;;;;;;;4.41;88.64;96496.97;4900473;29;20048;-75
2020/12/16 02:58:52;;;;;;;167.50;17.92;;;;;;;4.39;88.64;96508.47;4914034;29;20056;-74
2020/12/16 03:01:18;;;;;;;15.55;10.52;;;;;;;4.35;88.62;96510.66;4901406;29;20041;-75
2020/12/16 03:03:44;;;;;;;18.00;11.18;;;;;;;4.34;88.47;96508.22;4897973;29;20067;-74
2020/12/16 03:06:15;;;;;;;15.75;10.32;;;;;;;4.36;88.88;96501.88;4905561;29;20044;-75
2020/12/16 03:08:42;;;;;;;16.23;10.38;;;;;;;4.40;88.81;96510.13;4899114;29;20067;-74
2020/12/16 03:11:15;;;;;;;16.65;10.13;;;;;;;4.41;89.06;96506.53;4898714;29;20068;-74
2020/12/16 03:13:41;;;;;;;19.92;10.40;;;;;;;4.38;88.81;96509.47;4900603;29;20048;-74
2020/12/16 03:16:07;;;;;;;19.02;10.27;;;;;;;4.35;88.60;96507.25;4900161;29;20040;-75
2020/12/16 03:18:34;;;;;;;17.13;10.05;;;;;;;4.34;88.89;96497.84;4895637;29;20048;-75
2020/12/16 03:21:01;;;;;;;18.08;10.02;;;;;;;4.35;88.83;96509.84;4899651;29;20048;-74
2020/12/16 03:23:27;;;;;;;23.88;11.32;;;;;;;4.32;88.98;96511.00;4898108;29;20049;-74
2020/12/16 03:25:53;;;;;;;18.17;10.52;;;;;;;4.32;89.01;96516.19;4900450;29;20060;-74
2020/12/16 03:28:19;;;;;;;93.00;15.05;;;;;;;4.33;89.12;96517.81;4898519;29;20041;-74
2020/12/16 03:30:45;;;;;;;21.15;10.90;;;;;;;4.32;89.32;96516.19;4899974;29;20052;-74
2020/12/16 03:33:11;;;;;;;21.35;10.32;;;;;;;4.34;89.27;96521.22;4900454;29;20385;-74
2020/12/16 03:35:38;;;;;;;124.93;15.77;;;;;;;4.34;89.18;96526.41;4899105;29;20060;-75
2020/12/16 03:38:04;;;;;;;27.27;12.02;;;;;;;4.27;89.07;96524.50;4899764;29;20122;-75
2020/12/16 03:40:30;;;;;;;22.38;11.18;;;;;;;4.27;89.50;96524.50;4914411;29;20481;-74
2020/12/16 03:42:56;;;;;;;40.83;13.02;;;;;;;4.23;89.53;96518.06;4899870;29;20056;-74
2020/12/16 03:45:22;;;;;;;135.95;17.10;;;;;;;4.14;89.17;96521.72;4910991;29;20043;-75
2020/12/16 03:47:48;;;;;;;168.95;19.92;;;;;;;4.05;89.57;96509.75;4898890;29;20068;-74
2020/12/16 03:50:14;;;;;;;25.05;12.35;;;;;;;4.04;89.86;96516.75;4899335;29;20047;-75
2020/12/16 03:52:40;;;;;;;27.23;13.02;;;;;;;4.09;90.25;96523.22;4913977;29;20056;-74
2020/12/16 03:55:07;;;;;;;22.92;12.15;;;;;;;4.06;90.01;96517.38;4899043;29;20052;-74
2020/12/16 03:57:33;;;;;;;166.98;20.75;;;;;;;4.07;89.88;96516.41;4896934;29;20068;-75
2020/12/16 03:59:59;;;;;;;27.75;13.65;;;;;;;4.10;90.15;96519.66;4880640;29;20071;-76
2020/12/16 04:02:25;;;;;;;23.38;12.73;;;;;;;4.14;90.27;96529.50;4898056;29;20496;-76
2020/12/16 04:04:51;;;;;;;25.15;12.82;;;;;;;4.18;90.37;96529.94;4899334;29;20049;-74
2020/12/16 04:07:17;;;;;;;26.48;13.40;;;;;;;4.19;90.22;96514.19;4897373;29;20041;-74
2020/12/16 04:09:44;;;;;;;22.30;12.57;;;;;;;4.22;90.34;96516.44;4900406;29;20052;-74
2020/12/16 04:12:10;;;;;;;28.33;13.73;;;;;;;4.24;90.41;96524.03;4899814;29;20032;-74
2020/12/16 04:14:36;;;;;;;60.42;15.65;;;;;;;4.26;90.39;96530.69;4898097;29;20059;-75
2020/12/16 04:17:03;;;;;;;27.50;13.38;;;;;;;4.23;90.10;96525.03;4898456;29;20049;-75
2020/12/16 04:19:29;;;;;;;35.17;14.93;;;;;;;4.21;90.22;96529.59;4898509;29;20048;-74
2020/12/16 04:21:56;;;;;;;27.13;13.63;;;;;;;4.21;90.69;96525.19;4898436;29;20059;-74
2020/12/16 04:24:23;;;;;;;23.30;12.77;;;;;;;4.25;90.77;96530.84;4899907;29;20402;-74
2020/12/16 04:26:50;;;;;;;58.28;14.77;;;;;;;4.27;90.68;96532.28;4912031;29;20060;-74
2020/12/16 04:29:16;;;;;;;33.35;15.23;;;;;;;4.21;90.31;96533.00;4898327;29;20044;-74
2020/12/16 04:31:42;;;;;;;30.48;13.50;;;;;;;4.14;90.25;96520.91;4899116;29;20055;-74
2020/12/16 04:34:09;;;;;;;24.00;12.57;;;;;;;4.13;90.32;96527.06;4899389;29;20044;-74
2020/12/16 04:36:35;;;;;;;22.30;12.25;;;;;;;4.15;90.58;96527.69;4898898;29;20053;-74
2020/12/16 04:39:01;;;;;;;22.35;12.45;;;;;;;4.19;90.74;96521.97;4897641;29;20059;-74
2020/12/16 04:41:27;;;;;;;22.48;11.82;;;;;;;4.23;90.79;96525.03;4898895;29;20040;-74
2020/12/16 04:43:55;;;;;;;19.15;11.38;;;;;;;4.27;90.63;96532.28;4898293;29;20045;-74
2020/12/16 04:46:21;;;;;;;21.65;11.95;;;;;;;4.31;90.69;96530.16;4892919;29;20040;-75
2020/12/16 04:48:47;;;;;;;21.52;12.70;;;;;;;4.32;90.71;96531.75;4898119;29;20060;-75
2020/12/16 04:51:16;;;;;;;22.05;11.90;;;;;;;4.34;90.71;96527.19;4897091;29;20052;-74
2020/12/16 04:53:44;;;;;;;30.35;12.88;;;;;;;4.36;90.53;96521.84;4898057;29;20466;-74
2020/12/16 04:56:12;;;;;;;23.35;12.30;;;;;;;4.34;90.54;96522.00;4896859;29;20044;-74
2020/12/16 04:58:39;;;;;;;28.52;13.38;;;;;;;4.35;90.51;96522.84;4909168;29;20067;-74
2020/12/16 05:01:05;;;;;;;20.98;12.52;;;;;;;4.33;90.48;96527.41;4887718;29;20397;-75
2020/12/16 05:03:31;;;;;;;23.15;11.63;;;;;;;4.34;90.69;96529.00;4893591;29;20068;-74
2020/12/16 05:05:57;;;;;;;19.42;11.45;;;;;;;4.33;90.66;96533.38;4898248;29;20044;-74
2020/12/16 05:08:23;;;;;;;23.55;12.15;;;;;;;4.31;90.27;96537.94;4898492;29;20040;-75
2020/12/16 05:10:50;;;;;;;18.88;11.25;;;;;;;4.31;90.23;96543.13;4898724;29;20405;-74
2020/12/16 05:13:21;;;;;;;17.30;10.35;;;;;;;4.31;90.35;96553.53;4913113;29;20058;-74
2020/12/16 05:15:49;;;;;;;19.52;10.23;;;;;;;4.33;90.18;96548.16;4899291;29;20036;-75
2020/12/16 05:18:17;;;;;;;17.77;10.10;;;;;;;4.31;90.12;96547.53;4898574;29;20044;-74
2020/12/16 05:20:55;;;;;;;16.90;10.05;;;;;;;4.30;90.02;96546.69;4898005;29;20501;-74
2020/12/16 05:23:39;;;;;;;16.88;9.77;;;;;;;4.30;90.17;96558.88;4897815;29;20074;-75
2020/12/16 05:26:07;;;;;;;26.63;11.70;;;;;;;4.22;89.76;96552.78;4897806;29;20055;-74
2020/12/16 05:28:35;;;;;;;57.25;10.68;;;;;;;4.13;89.83;96559.00;4898421;29;20060;-74
2020/12/16 05:31:03;;;;;;;18.67;10.18;;;;;;;4.04;89.60;96555.69;4898023;29;20402;-74
2020/12/16 05:33:30;;;;;;;49.10;11.77;;;;;;;3.99;89.83;96554.56;4897472;29;20029;-75
2020/12/16 05:35:56;;;;;;;39.00;11.15;;;;;;;3.91;89.66;96565.84;4878832;29;20041;-74
2020/12/16 05:38:23;;;;;;;16.88;9.93;;;;;;;3.88;90.19;96567.97;4893821;29;20489;-74
2020/12/16 05:40:49;;;;;;;16.08;9.32;;;;;;;3.89;90.41;96564.41;4896858;29;20036;-74
2020/12/16 05:43:24;;;;;;;17.73;9.73;;;;;;;3.93;90.50;96563.88;4897737;29;20039;-74
2020/12/16 05:45:50;;;;;;;27.35;10.05;;;;;;;3.95;90.45;96568.88;4897981;29;20036;-74
2020/12/16 05:48:17;;;;;;;26.17;10.15;;;;;;;3.94;90.33;96569.88;4897446;29;20048;-74
2020/12/16 05:50:55;;;;;;;19.65;9.73;;;;;;;3.92;90.03;96577.00;4898528;29;20114;-73
2020/12/16 05:53:22;;;;;;;18.80;10.50;;;;;;;3.92;90.25;96582.19;4896063;29;20044;-74
2020/12/16 05:55:56;;;;;;;18.90;10.07;;;;;;;3.93;90.19;96583.84;4896963;29;20053;-74
2020/12/16 05:58:30;;;;;;;17.67;9.98;;;;;;;3.92;90.25;96580.41;4894008;29;20036;-74
2020/12/16 06:01:06;;;;;;;29.73;12.15;;;;;;;3.91;89.92;96580.59;4895988;29;20122;-74
2020/12/16 06:03:35;;;;;;;45.58;13.63;;;;;;;3.85;90.27;96582.88;4896008;29;20048;-74
2020/12/16 06:06:05;;;;;;;41.78;12.65;;;;;;;3.82;90.29;96578.06;4896364;29;20045;-74
2020/12/16 06:08:35;;;;;;;39.45;11.73;;;;;;;3.77;90.08;96585.53;4897520;29;20045;-74
2020/12/16 06:11:04;;;;;;;18.45;10.55;;;;;;;3.72;90.39;96577.47;4896004;29;20056;-74
2020/12/16 06:13:31;;;;;;;18.92;10.68;;;;;;;3.76;90.67;96577.91;4898387;29;20055;-74
2020/12/16 06:16:02;;;;;;;18.48;10.32;;;;;;;3.83;90.83;96586.63;4897590;29;20051;-75
2020/12/16 06:18:37;;;;;;;19.10;10.23;;;;;;;3.88;90.87;96578.34;4895515;29;20040;-74
2020/12/16 06:21:07;;;;;;;18.50;10.27;;;;;;;3.93;90.97;96576.84;4897955;29;20032;-74
2020/12/16 06:23:40;;;;;;;14.90;9.15;;;;;;;3.97;90.80;96588.50;4897937;29;20087;-74
2020/12/16 06:26:17;;;;;;;17.52;10.10;;;;;;;4.02;90.54;96583.59;4881521;29;20118;-74
2020/12/16 06:28:45;;;;;;;16.27;9.80;;;;;;;4.05;90.48;96591.03;4897533;29;20045;-75
2020/12/16 06:31:15;;;;;;;16.23;9.38;;;;;;;4.09;90.46;96586.28;4898103;29;20047;-74
2020/12/16 06:34:00;;;;;;;13.98;8.30;;;;;;;4.11;90.37;96596.50;4897662;29;20048;-74
2020/12/16 06:36:34;;;;;;;12.35;7.88;;;;;;;4.13;90.29;96591.94;4896396;29;20045;-74
2020/12/16 06:39:01;;;;;;;13.00;7.72;;;;;;;4.16;90.51;96581.22;4880593;29;20070;-75
2020/12/16 06:41:32;;;;;;;13.82;8.30;;;;;;;4.17;90.39;96578.44;4897221;29;20055;-73
2020/12/16 06:44:11;;;;;;;13.05;8.15;;;;;;;4.19;90.36;96583.47;4896549;29;20422;-75
2020/12/16 06:46:40;;;;;;;13.80;8.20;;;;;;;4.20;90.17;96587.66;4898191;29;20385;-74
2020/12/16 06:49:10;;;;;;;11.75;7.13;;;;;;;4.21;90.17;96584.91;4895648;29;20052;-74
2020/12/16 06:51:44;;;;;;;13.43;7.82;;;;;;;4.23;90.20;96587.34;4873624;29;20500;-74
2020/12/16 06:54:16;;;;;;;13.35;8.15;;;;;;;4.22;90.32;96603.88;4897358;29;20051;-74
2020/12/16 06:56:47;;;;;;;13.85;8.38;;;;;;;4.21;90.36;96613.47;4897360;29;20478;-74
2020/12/16 06:59:14;;;;;;;15.30;9.23;;;;;;;4.20;90.09;96611.03;4895080;29;20051;-75
2020/12/16 07:01:41;;;;;;;14.70;9.15;;;;;;;4.19;89.98;96617.22;4897901;29;20077;-74
2020/12/16 07:04:12;;;;;;;15.80;9.13;;;;;;;4.17;90.20;96614.78;4896418;29;20075;-74
2020/12/16 07:06:42;;;;;;;17.80;10.00;;;;;;;4.16;90.36;96610.59;4897283;29;20413;-74
2020/12/16 07:09:35;;;;;;;43.30;12.52;;;;;;;4.16;90.18;96610.59;4897090;29;20044;-73
2020/12/16 07:12:01;;;;;;;23.52;11.63;;;;;;;4.09;89.90;96608.84;4891545;29;20053;-75
2020/12/16 07:14:34;;;;;;;34.42;11.90;;;;;;;4.04;90.33;96607.56;4896927;29;20029;-74
2020/12/16 07:17:09;;;;;;;26.37;13.17;;;;;;;4.03;90.58;96618.13;4897397;29;20044;-74
2020/12/16 07:19:36;;;;;;;36.08;17.60;;;;;;;4.03;90.33;96631.09;4896237;29;20041;-74
2020/12/16 07:22:21;;;;;;;19.33;11.00;;;;;;;4.07;90.61;96629.78;4896042;29;20055;-75
2020/12/16 07:24:52;;;;;;;29.10;13.13;;;;;;;4.06;90.52;96628.97;4900040;29;20040;-75
2020/12/16 07:27:28;;;;;;;47.65;14.52;;;;;;;4.04;90.32;96627.53;4898858;29;20041;-74
2020/12/16 07:29:58;;;;;;;23.60;11.90;;;;;;;3.99;90.38;96633.25;4901425;29;20044;-74
2020/12/16 07:32:26;;;;;;;24.45;13.13;;;;;;;4.00;90.57;96631.44;4889045;29;20029;-74
2020/12/16 07:34:58;;;;;;;22.60;12.60;;;;;;;4.02;90.67;96635.47;4900650;29;20056;-75
2020/12/16 07:37:29;;;;;;;20.98;11.82;;;;;;;4.06;90.81;96633.34;4898688;29;20453;-74
2020/12/16 07:40:00;;;;;;;21.80;12.23;;;;;;;4.11;91.08;96636.22;4901328;29;20393;-75
2020/12/16 07:42:34;;;;;;;34.08;20.63;;;;;;;4.15;90.91;96637.50;4896497;29;20040;-74
2020/12/16 07:45:03;;;;;;;26.50;15.02;;;;;;;4.17;90.90;96653.72;4900838;29;20056;-74
2020/12/16 07:47:30;;;;;;;24.40;12.02;;;;;;;4.19;90.77;96648.38;4899907;29;20056;-74
2020/12/16 07:49:56;;;;;;;29.35;14.10;;;;;;;4.21;90.78;96644.59;4895798;29;20045;-74
2020/12/16 07:52:25;;;;;;;27.30;13.63;;;;;;;4.23;90.70;96642.66;4883351;29;20485;-73
2020/12/16 07:54:51;;;;;;;40.17;16.52;;;;;;;4.22;90.54;96642.81;4899407;29;20061;-74
2020/12/16 07:57:27;;;;;;;26.13;12.65;;;;;;;4.21;90.45;96644.59;4898919;29;20051;-74
2020/12/16 07:59:53;;;;;;;32.50;14.18;;;;;;;4.20;90.58;96637.81;4899329;29;20044;-75
2020/12/16 08:02:20;;;;;;;24.23;13.52;;;;;;;4.20;90.71;96643.00;4899568;29;20500;-76
2020/12/16 08:05:03;;;;;;;23.10;13.15;;;;;;;4.24;90.97;96644.28;4899514;29;20048;-74
2020/12/16 08:07:31;;;;;;;21.52;11.70;;;;;;;4.31;90.81;96646.19;4899711;29;20053;-74
2020/12/16 08:09:59;;;;;;;35.28;14.95;;;;;;;4.35;90.96;96645.66;4899999;29;20087;-74
2020/12/16 08:12:28;;;;;;;20.58;11.77;;;;;;;4.35;90.58;96642.25;4899163;29;20045;-75
2020/12/16 08:15:09;;;;;;;20.17;11.98;;;;;;;4.41;90.95;96650.16;4900288;29;20039;-76
2020/12/16 08:17:40;;;;;;;25.33;12.35;;;;;;;4.49;90.86;96659.66;4899237;29;20068;-75
2020/12/16 08:20:20;;;;;;;35.53;14.38;;;;;;;4.57;90.95;96661.41;4899911;29;20033;-74
2020/12/16 08:22:49;;;;;;;60.78;15.30;;;;;;;4.53;90.03;96655.72;4899573;29;20045;-74
2020/12/16 08:25:17;;;;;;;126.97;18.83;;;;;;;4.48;90.17;96664.06;4899763;29;20043;-74
2020/12/16 08:27:51;;;;;;;31.13;13.63;;;;;;;4.43;90.40;96653.41;4898356;29;20382;-74
2020/12/16 08:30:23;;;;;;;42.75;14.35;;;;;;;4.41;90.42;96662.31;4900401;29;20044;-74
2020/12/16 08:32:58;;;;;;;71.32;16.83;;;;;;;4.43;90.60;96657.75;4897683;29;20064;-75
2020/12/16 08:35:30;;;;;;;30.70;12.82;;;;;;;4.45;90.69;96660.97;4882238;29;20039;-74
2020/12/16 08:38:03;;;;;;;23.90;12.82;;;;;;;4.54;90.72;96666.94;4898727;29;20042;-75
2020/12/16 08:40:30;;;;;;;80.00;18.80;;;;;;;4.61;90.84;96662.66;4899848;29;20474;-74
2020/12/16 08:43:24;;;;;;;36.38;14.13;;;;;;;4.63;90.70;96645.91;4880095;29;20053;-76
2020/12/16 08:46:26;;;;;;;81.43;15.25;;;;;;;4.61;90.22;96647.06;4899616;29;20044;-74
2020/12/16 08:48:59;;;;;;;27.55;13.32;;;;;;;4.58;90.47;96648.25;4892003;29;20397;-74
2020/12/16 08:51:40;;;;;;;28.15;13.93;;;;;;;4.66;91.01;96652.53;4898242;29;20064;-75
2020/12/16 08:54:09;;;;;;;53.42;16.08;;;;;;;4.76;90.82;96652.31;4883372;29;20371;-74
2020/12/16 08:56:49;;;;;;;24.85;11.57;;;;;;;4.78;90.53;96656.34;4898705;29;20044;-74
2020/12/16 08:59:18;;;;;;;19.88;11.57;;;;;;;4.81;90.32;96658.59;4897759;29;20071;-75
2020/12/16 09:01:51;;;;;;;22.85;11.52;;;;;;;4.89;90.72;96665.50;4888025;29;20047;-74
2020/12/16 09:04:27;;;;;;;52.85;13.80;;;;;;;4.83;89.79;96666.19;4893183;29;20044;-74
2020/12/16 09:07:22;;;;;;;19.88;11.50;;;;;;;4.84;90.31;96670.44;4898072;29;20048;-74
2020/12/16 09:09:48;;;;;;;31.15;11.10;;;;;;;4.87;90.47;96673.50;4897409;29;20052;-74
2020/12/16 09:12:17;;;;;;;102.93;14.40;;;;;;;4.86;90.12;96671.88;4897666;29;20044;-75
2020/12/16 09:14:51;;;;;;;19.65;11.07;;;;;;;4.91;90.28;96673.94;4897583;29;20052;-74
2020/12/16 09:17:18;;;;;;;19.05;10.15;;;;;;;4.96;90.07;96678.63;4892785;29;20036;-74
2020/12/16 09:19:45;;;;;;;48.90;13.43;;;;;;;4.98;89.99;96682.66;4898751;29;20048;-75
2020/12/16 09:22:11;;;;;;;79.43;13.48;;;;;;;4.98;90.14;96680.06;4898307;29;20063;-74
2020/12/16 09:24:37;;;;;;;47.28;12.50;;;;;;;4.93;89.91;96682.34;4897809;29;20405;-74
2020/12/16 09:27:08;;;;;;;67.43;13.60;;;;;;;4.91;89.54;96686.13;4898717;29;20048;-74
2020/12/16 09:29:35;;;;;;;109.50;15.50;;;;;;;4.84;89.63;96686.03;4898967;29;20040;-74
2020/12/16 09:32:13;;;;;;;20.08;11.23;;;;;;;4.80;89.95;96687.34;4899182;29;20060;-74
2020/12/16 09:34:46;;;;;;;164.43;16.73;;;;;;;4.81;89.99;96678.59;4899165;29;20041;-74
2020/12/16 09:37:28;;;;;;;113.93;17.27;;;;;;;4.82;90.24;96675.78;4898253;29;20397;-74
2020/12/16 09:40:11;;;;;;;182.13;18.40;;;;;;;4.73;89.88;96681.25;4898719;29;20511;-73
2020/12/16 09:42:38;;;;;;;139.53;18.20;;;;;;;4.67;90.04;96680.16;4898727;29;20040;-75
2020/12/16 09:45:12;;;;;;;241.38;23.63;;;;;;;4.66;90.75;96679.34;4881413;29;20037;-74
2020/12/16 09:47:43;;;;;;;139.02;18.77;;;;;;;4.70;90.95;96678.97;4881595;29;20052;-74
2020/12/16 09:50:10;;;;;;;23.67;12.80;;;;;;;4.79;91.13;96680.56;4898007;29;20048;-74
2020/12/16 09:52:38;;;;;;;20.50;12.23;;;;;;;4.90;91.17;96680.13;4892398;29;20442;-74
2020/12/16 09:55:16;;;;;;;24.60;13.18;;;;;;;5.04;91.37;96676.75;4899521;29;20044;-75
2020/12/16 09:57:43;;;;;;;33.70;12.75;;;;;;;5.16;90.98;96686.69;4898380;29;20044;-74
2020/12/16 10:00:11;;;;;;;23.95;12.43;;;;;;;5.27;90.96;96674.09;4898323;29;20386;-74
2020/12/16 10:02:37;;;;;;;20.15;11.43;;;;;;;5.43;90.76;96670.47;4898156;29;20508;-74
2020/12/16 10:05:04;;;;;;;20.30;11.60;;;;;;;5.58;89.96;96667.06;4897566;29;20055;-74
2020/12/16 10:07:34;;;;;;;20.80;11.27;;;;;;;5.69;90.29;96672.63;4898169;29;20497;-75
2020/12/16 10:10:02;;;;;;;16.92;10.85;;;;;;;5.85;89.89;96671.63;4889109;29;20028;-75
2020/12/16 10:12:29;;;;;;;19.83;11.32;;;;;;;6.12;89.82;96673.75;4898439;29;20059;-74
2020/12/16 10:14:56;;;;;;;22.50;12.10;;;;;;;6.33;89.34;96668.56;4896094;29;20409;-75
2020/12/16 10:17:24;;;;;;;17.52;10.70;;;;;;;6.51;88.90;96668.16;4897885;29;20044;-74
2020/12/16 10:19:52;;;;;;;20.23;12.13;;;;;;;6.75;88.68;96681.78;4898092;29;20056;-74
2020/12/16 10:22:18;;;;;;;18.67;10.95;;;;;;;6.82;88.02;96670.41;4898097;29;20041;-75
2020/12/16 10:24:45;;;;;;;16.98;10.38;;;;;;;6.79;87.59;96662.97;4898255;29;20485;-74
2020/12/16 10:27:12;;;;;;;18.98;12.00;;;;;;;6.86;87.44;96663.00;4897636;29;20052;-74
2020/12/16 10:29:38;;;;;;;19.08;10.80;;;;;;;6.94;87.26;96665.47;4897291;29;20481;-74
2020/12/16 10:32:05;;;;;;;19.73;11.05;;;;;;;6.94;86.77;96667.28;4898347;29;20052;-74
2020/12/16 10:34:31;;;;;;;20.42;11.57;;;;;;;6.86;86.41;96657.81;4896436;29;20040;-74
2020/12/16 10:36:58;;;;;;;21.80;12.32;;;;;;;6.82;86.69;96654.75;4897731;29;20040;-74
2020/12/16 10:39:24;;;;;;;19.63;11.63;;;;;;;6.94;87.23;96655.06;4881057;29;20509;-74
2020/12/16 10:41:52;;;;;;;16.83;10.77;;;;;;;7.19;87.21;96647.59;4897663;29;20051;-75
2020/12/16 10:44:20;;;;;;;15.48;10.25;;;;;;;7.42;86.61;96644.72;4897819;29;20045;-74
2020/12/16 10:46:48;;;;;;;17.05;10.95;;;;;;;7.69;86.72;96648.28;4897927;29;20474;-75
2020/12/16 10:49:16;;;;;;;15.82;10.55;;;;;;;7.98;86.33;96653.38;4897438;29;20041;-74
2020/12/16 10:51:43;;;;;;;17.08;10.50;;;;;;;8.18;85.41;96651.66;4897680;29;20060;-74
2020/12/16 10:54:10;;;;;;;24.27;15.07;;;;;;;8.27;84.36;96655.69;4896351;29;20375;-75
2020/12/16 10:56:37;;;;;;;10.48;7.28;;;;;;;8.33;83.87;96652.28;4895761;29;20037;-74
2020/12/16 10:59:03;;;;;;;56.72;37.33;;;;;;;8.67;85.15;96653.19;4900475;29;20131;-74
2020/12/16 11:01:33;;;;;;;23.85;14.48;;;;;;;8.76;82.91;96645.09;4901764;29;20040;-74
2020/12/16 11:04:00;;;;;;;24.90;16.00;;;;;;;8.75;82.81;96646.91;4901781;29;20048;-74
2020/12/16 11:06:26;;;;;;;13.40;9.25;;;;;;;8.59;82.10;96632.47;4901198;29;20500;-74
2020/12/16 11:08:52;;;;;;;15.40;10.90;;;;;;;8.31;82.37;96636.00;4901308;29;20044;-74
2020/12/16 11:11:18;;;;;;;15.15;10.32;;;;;;;8.16;82.84;96635.38;4901102;29;20040;-74
2020/12/16 11:13:45;;;;;;;16.85;11.07;;;;;;;8.25;83.30;96628.16;4884847;29;20706;-74
2020/12/16 11:16:11;;;;;;;16.17;10.80;;;;;;;8.40;83.43;96620.13;4901805;29;20069;-75
2020/12/16 11:18:37;;;;;;;17.35;11.25;;;;;;;8.58;83.20;96612.53;4901025;29;20044;-74
2020/12/16 11:21:03;;;;;;;15.73;11.50;;;;;;;8.70;82.67;96608.31;4900930;29;20032;-74
2020/12/16 11:23:30;;;;;;;19.33;12.60;;;;;;;8.83;82.20;96604.88;4901105;29;20044;-74
2020/12/16 11:25:56;;;;;;;13.40;9.32;;;;;;;9.04;82.30;96616.94;4900804;29;20497;-74
2020/12/16 11:28:22;;;;;;;16.75;10.57;;;;;;;9.14;81.37;96613.91;4883597;29;20409;-75
2020/12/16 11:30:49;;;;;;;23.35;12.80;;;;;;;9.21;81.23;96601.59;4901255;29;20036;-74
2020/12/16 11:33:15;;;;;;;26.27;16.90;;;;;;;9.32;80.79;96605.41;4899811;29;20037;-75
2020/12/16 11:35:41;;;;;;;19.42;13.25;;;;;;;9.34;80.44;96595.53;4899508;29;20044;-74